Sommer S — WDG3830 — position and weather

sailwx.info

Track history (hours):
 
Tides and Currents Weather Stations Pressure Air Temp Water Temp Dewpoint Dewpoint Depression Visibility Wind Speed Wind Dir Waves Ship Positions

Sommer S

Owner: Shaver Transportation Company, Portland, OR. More information available from US FCC via Universal Licensing System and Coast Guard Vessel Documentation Center.

Last reported at 2017-Aug-21 14:00 UTC. Time now 2017-Aug-21 14:07 UTC.
Position N 45°38' W 122°42'.

Length 25 m; draft 16.5 m.

Type: Tug. MMSI: 367530080.

Date/timePositionNaut miles runAvg speedWind from/ knotsBaromVisibWave heightAir tempDewpointWater temp
2017-Aug-21 14:00N 45°38' W 122°42'1 2.4
2017-Aug-21 13:30N 45°38' W 122°43'1 1.9
2017-Aug-21 13:01N 45°39' W 122°44'2 4.2
2017-Aug-21 12:30N 45°38' W 122°42'2 3.9
2017-Aug-21 11:52N 45°39' W 122°45'2 5.8
2017-Aug-21 11:30N 45°40' W 122°46'611.1
2017-Aug-21 11:00N 45°46' W 122°46'611.9
2017-Aug-21 10:31N 45°52' W 122°47'612.2
2017-Aug-21 10:00N 45°58' W 122°49'612.1
2017-Aug-21 09:30N 46°03' W 122°53'4 7.3
2017-Aug-21 09:01N 46°06' W 122°56'0 0.5
2017-Aug-21 08:31N 46°06' W 122°56'3 6.6
2017-Aug-21 08:00N 46°03' W 122°53'2 3.1
2017-Aug-21 07:30N 46°02' W 122°52'0 0.0
2017-Aug-21 07:01N 46°02' W 122°52'0 0.0
2017-Aug-21 06:30N 46°02' W 122°52'0 0.0
2017-Aug-21 06:01N 46°02' W 122°52'0 0.0
2017-Aug-21 05:30N 46°02' W 122°52'0 0.0
2017-Aug-21 05:01N 46°02' W 122°52'0 0.0
2017-Aug-21 04:30N 46°02' W 122°52'0 0.3
2017-Aug-21 04:01N 46°02' W 122°52'1 2.7
2017-Aug-21 03:31N 46°03' W 122°53'4 7.5
2017-Aug-21 02:59N 46°06' W 122°57'2 4.4
2017-Aug-21 02:27N 46°07' W 122°59'4 9.5
2017-Aug-21 02:00N 46°10' W 123°04'5 9.6
2017-Aug-21 01:31N 46°11' W 123°11'0 0.3
2017-Aug-21 01:00N 46°11' W 123°11'0 0.0
2017-Aug-21 00:30N 46°11' W 123°11'2 3.2
2017-Aug-21 00:00N 46°11' W 123°09'612.3
2017-Aug-20 23:30N 46°08' W 123°01'3 5.8
2017-Aug-20 23:00N 46°06' W 122°58'0 0.0
2017-Aug-20 22:30N 46°06' W 122°58'3 5.9
2017-Aug-20 22:01N 46°05' W 122°54'3 6.5
2017-Aug-20 21:30N 46°02' W 122°52'1 1.9
2017-Aug-20 21:01N 46°03' W 122°53'1 1.6
2017-Aug-20 20:30N 46°03' W 122°53'2 3.6
2017-Aug-20 20:01N 46°02' W 122°52'0 0.0
2017-Aug-20 19:30N 46°02' W 122°52'3 6.7
2017-Aug-20 19:00N 46°05' W 122°54'1 3.0
2017-Aug-20 18:30N 46°05' W 122°56'0 0.0
2017-Aug-20 18:01N 46°05' W 122°56'0 0.0
2017-Aug-20 17:30N 46°05' W 122°56'0 0.0
2017-Aug-20 17:00N 46°05' W 122°56'0 0.0
2017-Aug-20 16:30N 46°05' W 122°56'0 0.0
2017-Aug-20 16:01N 46°05' W 122°56'0 0.0
2017-Aug-20 15:30N 46°05' W 122°56'0 0.0
2017-Aug-20 15:00N 46°05' W 122°56'0 0.0
2017-Aug-20 14:31N 46°05' W 122°56'0 0.0
2017-Aug-20 14:00N 46°05' W 122°56'0 0.0
2017-Aug-20 13:31N 46°05' W 122°56'0 0.8
2017-Aug-20 13:01N 46°05' W 122°55'0 0.0
2017-Aug-20 12:31N 46°05' W 122°55'0 0.0
2017-Aug-20 12:00N 46°05' W 122°55'0 0.0
2017-Aug-20 11:30N 46°05' W 122°55'0 0.0
2017-Aug-20 11:00N 46°05' W 122°55'0 0.0
2017-Aug-20 10:30N 46°05' W 122°55'0 0.8
2017-Aug-20 10:00N 46°05' W 122°56'1 1.9
2017-Aug-20 09:31N 46°06' W 122°57'0 0.0
2017-Aug-20 09:01N 46°06' W 122°57'1 1.5
2017-Aug-20 08:31N 46°06' W 122°56'1 1.9
2017-Aug-20 08:01N 46°06' W 122°57'0 0.1
2017-Aug-20 07:31N 46°06' W 122°57'0 0.2
2017-Aug-20 07:01N 46°06' W 122°57'0 1.0
2017-Aug-20 06:31N 46°06' W 122°57'1 1.7
2017-Aug-20 06:01N 46°06' W 122°55'0 0.7
2017-Aug-20 05:31N 46°05' W 122°56'4 7.2
2017-Aug-20 05:00N 46°03' W 122°53'1 2.2
2017-Aug-20 04:31N 46°02' W 122°52'1 1.4
2017-Aug-20 04:01N 46°02' W 122°53'0 1.0
2017-Aug-20 03:30N 46°03' W 122°53'0 0.0
2017-Aug-20 03:01N 46°03' W 122°53'0 0.0
2017-Aug-20 02:30N 46°03' W 122°53'1 1.9
2017-Aug-20 02:00N 46°02' W 122°52'0 0.2
2017-Aug-20 01:30N 46°02' W 122°53'0 0.1
2017-Aug-20 01:01N 46°02' W 122°53'0 0.1
2017-Aug-20 00:30N 46°02' W 122°53'0 0.0
2017-Aug-20 00:00N 46°02' W 122°53'0 0.1
2017-Aug-19 23:30N 46°02' W 122°53'0 0.0
2017-Aug-19 23:00N 46°02' W 122°53'0 0.1
2017-Aug-19 22:30N 46°02' W 122°53'0 0.0
2017-Aug-19 22:00N 46°02' W 122°53'0 0.0
2017-Aug-19 21:30N 46°02' W 122°53'0 0.1
2017-Aug-19 21:00N 46°02' W 122°53'0 0.0
2017-Aug-19 20:30N 46°02' W 122°53'0 0.0
2017-Aug-19 20:01N 46°02' W 122°53'0 0.1
2017-Aug-19 19:31N 46°02' W 122°53'0 0.0
2017-Aug-19 19:00N 46°02' W 122°53'0 0.0
2017-Aug-19 18:31N 46°02' W 122°53'0 0.1
2017-Aug-19 18:00N 46°02' W 122°53'0 0.0
2017-Aug-19 17:30N 46°02' W 122°53'0 0.1
2017-Aug-19 17:00N 46°02' W 122°53'0 0.0
2017-Aug-19 16:30N 46°02' W 122°53'0 0.0
2017-Aug-19 16:01N 46°02' W 122°53'0 0.0
2017-Aug-19 15:30N 46°02' W 122°53'0 0.0
2017-Aug-19 15:00N 46°02' W 122°53'0 0.0
2017-Aug-19 14:00N 46°02' W 122°53'3 5.8
2017-Aug-19 13:30N 45°59' W 122°50'0 0.4
2017-Aug-19 13:00N 45°59' W 122°50'1 1.3
2017-Aug-19 12:31N 45°60' W 122°51'1 1.4
2017-Aug-19 12:01N 46°00' W 122°51'1 1.2
2017-Aug-19 11:31N 46°01' W 122°51'1 2.4
2017-Aug-19 11:00N 46°02' W 122°53'0 0.1
2017-Aug-19 10:30N 46°02' W 122°53'0 0.2
2017-Aug-19 10:00N 46°02' W 122°53'0 0.4
2017-Aug-19 09:31N 46°02' W 122°52'0 0.3
2017-Aug-19 09:00N 46°02' W 122°52'0 0.0
2017-Aug-19 08:30N 46°02' W 122°52'0 0.0
2017-Aug-19 08:01N 46°02' W 122°52'0 0.0
2017-Aug-19 07:31N 46°02' W 122°52'0 0.0
2017-Aug-19 07:01N 46°02' W 122°52'0 0.0
2017-Aug-19 06:30N 46°02' W 122°52'0 0.0
2017-Aug-19 06:00N 46°02' W 122°52'2 4.6
2017-Aug-19 05:30N 46°04' W 122°53'4 8.2
2017-Aug-19 04:59N 46°07' W 122°58'710.6
2017-Aug-19 04:20N 46°11' W 123°06'3 5.6
2017-Aug-19 03:44N 46°11' W 123°11'0 0.0
2017-Aug-19 03:30N 46°11' W 123°11'1 2.5
2017-Aug-19 03:00N 46°10' W 123°13'1 2.3
2017-Aug-19 02:30N 46°11' W 123°11'5 9.4
2017-Aug-19 02:00N 46°10' W 123°05'713.1
2017-Aug-19 01:31N 46°06' W 122°57'1 2.4
2017-Aug-19 01:00N 46°05' W 122°55'1 2.3
2017-Aug-19 00:30N 46°05' W 122°54'5 9.4
2017-Aug-19 00:00N 46°00' W 122°51'5 9.1
2017-Aug-18 23:31N 45°56' W 122°48'4 7.3
2017-Aug-18 23:01N 45°53' W 122°48'4 7.8
2017-Aug-18 22:30N 45°49' W 122°48'2 4.9
2017-Aug-18 22:00N 45°47' W 122°46'3 6.5
2017-Aug-18 21:30N 45°50' W 122°48'10 9.2
2017-Aug-18 20:26N 45°59' W 122°51'4 9.4
2017-Aug-18 20:00N 46°03' W 122°53'4 7.9
2017-Aug-18 19:30N 46°06' W 122°56'4 7.1
2017-Aug-18 19:00N 46°03' W 122°53'2 2.9
2017-Aug-18 18:25N 46°02' W 122°53'0 0.0
2017-Aug-18 18:00N 46°02' W 122°53'0 0.1
2017-Aug-18 17:30N 46°02' W 122°53'0 0.1
2017-Aug-18 17:01N 46°02' W 122°53'0 0.0
2017-Aug-18 16:19N 46°02' W 122°53'0 1.3
2017-Aug-18 16:00N 46°02' W 122°53'4 7.8
2017-Aug-18 15:30N 46°05' W 122°56'2 3.7
2017-Aug-18 15:00N 46°07' W 122°58'0 0.7
2017-Aug-18 14:30N 46°07' W 122°58'1 0.9
2017-Aug-18 13:30N 46°06' W 122°57'611.0
2017-Aug-18 13:00N 46°02' W 122°53'3 6.4
2017-Aug-18 12:30N 45°59' W 122°50'0 0.1
2017-Aug-18 12:00N 45°59' W 122°50'0 0.2
2017-Aug-18 11:30N 45°59' W 122°50'0 0.0
2017-Aug-18 11:00N 45°59' W 122°50'0 0.0
2017-Aug-18 10:30N 45°59' W 122°50'0 0.0
2017-Aug-18 10:00N 45°59' W 122°50'0 0.1
2017-Aug-18 09:30N 45°59' W 122°50'0 0.1
2017-Aug-18 09:01N 45°59' W 122°50'0 0.0
2017-Aug-18 08:30N 45°59' W 122°50'0 0.0
2017-Aug-18 08:00N 45°59' W 122°50'0 0.0
2017-Aug-18 07:30N 45°59' W 122°50'0 0.0
2017-Aug-18 07:01N 45°59' W 122°50'0 0.0
2017-Aug-18 06:30N 45°59' W 122°50'0 0.0
2017-Aug-18 06:01N 45°59' W 122°50'0 0.0
2017-Aug-18 05:31N 45°59' W 122°50'0 0.3
2017-Aug-18 05:00N 45°59' W 122°50'0 0.1
2017-Aug-18 04:30N 45°59' W 122°50'0 0.1
2017-Aug-18 03:57N 45°59' W 122°50'0 0.0
2017-Aug-18 03:31N 45°59' W 122°50'2 3.8
2017-Aug-18 03:00N 46°01' W 122°52'4 8.8
2017-Aug-18 02:31N 46°05' W 122°54'3 6.3
2017-Aug-18 02:01N 46°07' W 122°58'1 2.1
2017-Aug-18 01:30N 46°07' W 122°59'1 1.4
2017-Aug-18 01:00N 46°07' W 122°58'2 3.3
2017-Aug-18 00:30N 46°06' W 122°56'0 0.4
2017-Aug-18 00:01N 46°06' W 122°57'0 0.2
2017-Aug-17 23:31N 46°06' W 122°56'0 0.0
2017-Aug-17 23:01N 46°06' W 122°56'0 0.0
2017-Aug-17 22:30N 46°06' W 122°56'0 0.0
2017-Aug-17 22:00N 46°06' W 122°56'0 0.0
2017-Aug-17 21:31N 46°06' W 122°56'0 0.0
2017-Aug-17 21:00N 46°06' W 122°56'5 9.0
2017-Aug-17 20:30N 46°02' W 122°53'510.9
2017-Aug-17 20:00N 45°58' W 122°49'510.7
2017-Aug-17 19:31N 45°52' W 122°47'611.2
2017-Aug-17 19:00N 45°47' W 122°46'510.1
2017-Aug-17 18:30N 45°42' W 122°46'4 9.0
2017-Aug-17 18:01N 45°37' W 122°47'4 8.1
2017-Aug-17 17:30N 45°34' W 122°43'1 1.4
2017-Aug-17 17:00N 45°34' W 122°43'1 1.6
2017-Aug-17 16:30N 45°34' W 122°44'0 0.7
2017-Aug-17 16:00N 45°34' W 122°44'0 0.0
2017-Aug-17 15:30N 45°34' W 122°44'1 1.7
2017-Aug-17 15:00N 45°34' W 122°44'4 7.3
2017-Aug-17 14:31N 45°37' W 122°47'2 4.7
2017-Aug-17 14:00N 45°39' W 122°45'2 3.3
2017-Aug-17 13:30N 45°38' W 122°42'0 0.1
2017-Aug-17 13:00N 45°38' W 122°42'0 0.8
2017-Aug-17 12:31N 45°38' W 122°43'0 0.8
2017-Aug-17 12:00N 45°38' W 122°42'3 6.1
2017-Aug-17 11:30N 45°38' W 122°47'3 5.4
2017-Aug-17 11:00N 45°36' W 122°47'0 0.2
2017-Aug-17 10:30N 45°36' W 122°47'0 0.7
2017-Aug-17 10:00N 45°36' W 122°47'0 0.2
2017-Aug-17 09:30N 45°36' W 122°47'0 0.2
2017-Aug-17 09:01N 45°36' W 122°47'1 2.0
2017-Aug-17 08:30N 45°37' W 122°47'3 5.5
2017-Aug-17 08:00N 45°39' W 122°44'1 1.1
2017-Aug-17 07:30N 45°38' W 122°43'1 1.5
2017-Aug-17 06:40N 45°38' W 122°42'0 0.8
2017-Aug-17 06:30N 45°38' W 122°42'0 0.0
2017-Aug-17 06:00N 45°38' W 122°42'1 1.6
2017-Aug-17 05:31N 45°38' W 122°43'2 3.7
2017-Aug-17 05:00N 45°39' W 122°45'0 0.0
2017-Aug-17 04:30N 45°39' W 122°45'0 0.0
2017-Aug-17 04:00N 45°39' W 122°45'0 0.9
2017-Aug-17 03:30N 45°39' W 122°45'1 1.2
2017-Aug-17 03:00N 45°39' W 122°45'0 0.1
2017-Aug-17 02:31N 45°39' W 122°45'0 0.0
2017-Aug-17 02:00N 45°39' W 122°45'0 0.0
2017-Aug-17 01:30N 45°39' W 122°45'0 0.0
2017-Aug-17 01:01N 45°39' W 122°45'0 0.0
2017-Aug-17 00:31N 45°39' W 122°45'0 0.0
2017-Aug-17 00:00N 45°39' W 122°45'0 0.0
2017-Aug-16 23:30N 45°39' W 122°45'0 0.0
2017-Aug-16 23:00N 45°39' W 122°45'0 0.0
2017-Aug-16 22:31N 45°39' W 122°45'0 0.0
2017-Aug-16 22:00N 45°39' W 122°45'0 0.0
2017-Aug-16 21:31N 45°39' W 122°45'0 0.0
2017-Aug-16 21:01N 45°39' W 122°45'0 0.0
2017-Aug-16 20:16N 45°39' W 122°45'0 0.0
2017-Aug-16 20:00N 45°39' W 122°45'0 0.0
2017-Aug-16 19:31N 45°39' W 122°45'0 0.0
2017-Aug-16 19:01N 45°39' W 122°45'3 6.1
2017-Aug-16 18:30N 45°36' W 122°47'4 7.2
2017-Aug-16 18:00N 45°34' W 122°44'0 0.0
2017-Aug-16 17:30N 45°34' W 122°44'0 0.0
2017-Aug-16 17:00N 45°34' W 122°44'0 0.0
2017-Aug-16 16:30N 45°34' W 122°44'0 0.0
2017-Aug-16 16:00N 45°34' W 122°44'2 4.2
2017-Aug-16 15:30N 45°35' W 122°46'4 7.7
2017-Aug-16 15:00N 45°39' W 122°46'3 6.8
2017-Aug-16 14:30N 45°38' W 122°42'1 1.1
2017-Aug-16 14:00N 45°38' W 122°42'1 2.0
2017-Aug-16 13:30N 45°38' W 122°44'0 0.0
2017-Aug-16 13:01N 45°38' W 122°44'0 0.0
2017-Aug-16 12:30N 45°38' W 122°44'0 0.0
2017-Aug-16 12:01N 45°38' W 122°44'0 0.0
2017-Aug-16 11:30N 45°38' W 122°44'0 0.0
2017-Aug-16 11:00N 45°38' W 122°44'1 0.8
2017-Aug-16 10:10N 45°39' W 122°45'1 7.1
2017-Aug-16 10:00N 45°39' W 122°46'1 2.1
2017-Aug-16 09:30N 45°38' W 122°47'0 0.2
2017-Aug-16 09:00N 45°38' W 122°47'0 0.0
2017-Aug-16 08:30N 45°38' W 122°47'2 4.9
2017-Aug-16 08:00N 45°38' W 122°43'3 5.2
2017-Aug-16 07:30N 45°40' W 122°46'0 0.2
2017-Aug-16 07:00N 45°40' W 122°46'1 2.9
2017-Aug-16 06:31N 45°41' W 122°46'2 4.3
2017-Aug-16 06:01N 45°39' W 122°45'0 0.0
2017-Aug-16 05:30N 45°39' W 122°45'0 0.0
2017-Aug-16 05:00N 45°39' W 122°45'0 0.0
2017-Aug-16 04:30N 45°39' W 122°45'1 2.6
2017-Aug-16 04:01N 45°38' W 122°44'0 0.4
2017-Aug-16 03:30N 45°38' W 122°44'0 0.0
2017-Aug-16 03:00N 45°38' W 122°44'2 3.4
2017-Aug-16 02:30N 45°38' W 122°42'2 3.3
2017-Aug-16 02:01N 45°38' W 122°44'0 0.0
2017-Aug-16 01:29N 45°38' W 122°44'0 0.0
2017-Aug-16 01:01N 45°38' W 122°44'0 0.0
2017-Aug-16 00:31N 45°38' W 122°44'0 0.0
2017-Aug-16 00:00N 45°38' W 122°44'0 0.0
2017-Aug-15 23:31N 45°38' W 122°44'1 2.1
2017-Aug-15 23:00N 45°38' W 122°42'0 0.2
2017-Aug-15 22:30N 45°38' W 122°42'1 1.9
2017-Aug-15 22:00N 45°38' W 122°43'4 8.6
2017-Aug-15 21:30N 45°42' W 122°46'5 9.3
2017-Aug-15 21:00N 45°47' W 122°46'5 9.2
2017-Aug-15 20:30N 45°51' W 122°47'5 9.1
2017-Aug-15 20:01N 45°56' W 122°48'5 9.6
2017-Aug-15 19:31N 46°00' W 122°51'5 9.4
2017-Aug-15 19:00N 46°05' W 122°54'5 9.6
2017-Aug-15 18:30N 46°07' W 122°60'510.3
2017-Aug-15 18:00N 46°10' W 123°06'5 9.5
2017-Aug-15 17:31N 46°10' W 123°12'510.4
2017-Aug-15 17:00N 46°08' W 123°19'510.1
2017-Aug-15 16:30N 46°11' W 123°26'510.2
2017-Aug-15 16:00N 46°16' W 123°28'610.9
2017-Aug-15 15:30N 46°15' W 123°36'510.8
2017-Aug-15 15:00N 46°14' W 123°43'611.1
2017-Aug-15 14:30N 46°12' W 123°50'1 2.1
2017-Aug-15 14:00N 46°11' W 123°52'1 1.5
2017-Aug-15 13:30N 46°12' W 123°51'5 9.7
2017-Aug-15 13:00N 46°14' W 123°44'5 9.4
2017-Aug-15 12:30N 46°16' W 123°38'611.9
2017-Aug-15 12:00N 46°16' W 123°29'611.4
2017-Aug-15 11:30N 46°11' W 123°26'611.7
2017-Aug-15 11:00N 46°09' W 123°18'713.4
2017-Aug-15 10:30N 46°11' W 123°09'713.2
2017-Aug-15 10:00N 46°08' W 123°01'612.3
2017-Aug-15 09:30N 46°05' W 122°54'612.6
2017-Aug-15 09:00N 45°59' W 122°50'912.4
2017-Aug-15 08:18N 45°50' W 122°47'412.8
2017-Aug-15 08:00N 45°47' W 122°46'612.7
2017-Aug-15 07:30N 45°40' W 122°46'3 5.1
2017-Aug-15 07:00N 45°38' W 122°44'1 1.4
2017-Aug-15 06:30N 45°39' W 122°45'0 0.0
2017-Aug-15 06:00N 45°39' W 122°45'2 4.2
2017-Aug-15 05:30N 45°38' W 122°47'2 3.2
2017-Aug-15 04:59N 45°36' W 122°47'0 0.3
2017-Aug-15 04:30N 45°36' W 122°47'2 3.8
2017-Aug-15 04:00N 45°38' W 122°47'2 3.7
2017-Aug-15 03:30N 45°39' W 122°45'0 0.0
2017-Aug-15 03:00N 45°39' W 122°45'0 0.0
2017-Aug-15 02:30N 45°39' W 122°45'0 0.0
2017-Aug-15 01:55N 45°39' W 122°45'0 0.0
2017-Aug-15 01:18N 45°39' W 122°45'0 0.0
2017-Aug-15 01:00N 45°39' W 122°45'0 0.0
2017-Aug-15 00:30N 45°39' W 122°45'0 0.1
2017-Aug-15 00:00N 45°39' W 122°45'2 3.5
2017-Aug-14 23:30N 45°38' W 122°47'4 8.3
2017-Aug-14 23:00N 45°34' W 122°44'4 7.7
2017-Aug-14 22:30N 45°32' W 122°40'3 6.0
2017-Aug-14 22:00N 45°34' W 122°44'0 0.0
2017-Aug-14 21:30N 45°34' W 122°44'0 0.0
2017-Aug-14 21:00N 45°34' W 122°44'0 0.0
2017-Aug-14 20:19N 45°34' W 122°44'0 0.0
2017-Aug-14 20:00N 45°34' W 122°44'0 0.0
2017-Aug-14 19:30N 45°34' W 122°44'0 0.0
2017-Aug-14 19:00N 45°34' W 122°44'0 0.0
2017-Aug-14 18:30N 45°34' W 122°44'0 0.0
2017-Aug-14 18:00N 45°34' W 122°44'0 0.0
2017-Aug-14 17:30N 45°34' W 122°44'0 0.0
2017-Aug-14 17:00N 45°34' W 122°44'0 0.0
2017-Aug-14 16:30N 45°34' W 122°44'0 0.0
2017-Aug-14 16:00N 45°34' W 122°44'0 0.0
2017-Aug-14 15:30N 45°34' W 122°44'0 0.0
2017-Aug-14 15:00N 45°34' W 122°44'2 3.5
2017-Aug-14 14:30N 45°33' W 122°42'1 1.4
2017-Aug-14 14:00N 45°32' W 122°41'0 0.1
2017-Aug-14 13:30N 45°32' W 122°41'2 3.7
2017-Aug-14 13:00N 45°33' W 122°43'1 1.3
2017-Aug-14 12:30N 45°34' W 122°44'0 0.0
2017-Aug-14 12:00N 45°34' W 122°44'0 0.0
2017-Aug-14 11:30N 45°34' W 122°44'0 0.0
2017-Aug-14 11:00N 45°34' W 122°44'0 0.0
2017-Aug-14 10:30N 45°34' W 122°44'0 0.0
2017-Aug-14 10:00N 45°34' W 122°44'0 0.0
2017-Aug-14 09:30N 45°34' W 122°44'3 5.9
2017-Aug-14 09:00N 45°36' W 122°47'0 0.2
2017-Aug-14 08:30N 45°36' W 122°47'0 0.4
2017-Aug-14 08:00N 45°36' W 122°47'1 1.6
2017-Aug-14 07:30N 45°35' W 122°46'4 8.7
2017-Aug-14 07:00N 45°32' W 122°41'0 0.3
2017-Aug-14 06:30N 45°33' W 122°41'2 4.0
2017-Aug-14 06:00N 45°34' W 122°44'1 2.2
2017-Aug-14 05:28N 45°33' W 122°42'1 3.2
2017-Aug-14 05:00N 45°32' W 122°41'0 0.5
2017-Aug-14 04:30N 45°32' W 122°40'0 0.3
2017-Aug-14 04:00N 45°32' W 122°40'0 0.2
2017-Aug-14 03:30N 45°32' W 122°40'3 6.1
2017-Aug-14 02:59N 45°34' W 122°43'5 8.8
2017-Aug-14 02:26N 45°38' W 122°47'4 9.2
2017-Aug-14 02:00N 45°42' W 122°46'510.8
2017-Aug-14 01:30N 45°47' W 122°46'510.4
2017-Aug-14 01:00N 45°52' W 122°47'510.4
2017-Aug-14 00:30N 45°57' W 122°49'510.1
2017-Aug-14 00:00N 46°02' W 122°52'5 9.4
2017-Aug-13 23:30N 46°06' W 122°56'5 9.6
2017-Aug-13 22:59N 46°09' W 123°02'510.0
2017-Aug-13 22:30N 46°11' W 123°08'2 4.5
2017-Aug-13 22:00N 46°11' W 123°11'1 2.6
2017-Aug-13 21:30N 46°11' W 123°09'713.2
2017-Aug-13 21:00N 46°08' W 123°01'4 7.6
2017-Aug-13 20:30N 46°06' W 122°56'0 1.0
2017-Aug-13 20:00N 46°05' W 122°56'0 0.0
2017-Aug-13 19:30N 46°05' W 122°56'0 0.0
2017-Aug-13 19:00N 46°05' W 122°56'0 0.0
2017-Aug-13 18:30N 46°05' W 122°56'0 0.0
2017-Aug-13 18:00N 46°05' W 122°56'0 0.0
2017-Aug-13 17:30N 46°05' W 122°56'0 0.0
2017-Aug-13 17:00N 46°05' W 122°56'0 0.0
2017-Aug-13 16:30N 46°05' W 122°56'0 0.0
2017-Aug-13 16:00N 46°05' W 122°56'0 0.0
2017-Aug-13 15:30N 46°05' W 122°56'1 1.0
2017-Aug-13 15:00N 46°06' W 122°56'0 0.7
2017-Aug-13 14:30N 46°06' W 122°57'0 0.8
2017-Aug-13 14:00N 46°06' W 122°56'0 0.0
2017-Aug-13 13:30N 46°06' W 122°56'0 0.3
2017-Aug-13 13:00N 46°06' W 122°56'611.4
2017-Aug-13 12:30N 46°01' W 122°52'612.2
2017-Aug-13 12:00N 45°55' W 122°48'713.3
2017-Aug-13 11:30N 45°49' W 122°48'612.9
2017-Aug-13 11:00N 45°42' W 122°46'4 5.7
2017-Aug-13 10:19N 45°39' W 122°45'0 0.1
2017-Aug-13 10:01N 45°39' W 122°45'0 0.0
2017-Aug-13 09:31N 45°39' W 122°45'0 0.1
2017-Aug-13 09:00N 45°39' W 122°45'2 4.9
2017-Aug-13 08:30N 45°37' W 122°47'4 3.6
2017-Aug-13 07:21N 45°34' W 122°44'0 0.0
2017-Aug-13 07:00N 45°34' W 122°44'0 0.0
2017-Aug-13 06:30N 45°34' W 122°44'1 2.3
2017-Aug-13 06:01N 45°35' W 122°45'4 8.0
2017-Aug-13 05:30N 45°38' W 122°47'1 2.3
2017-Aug-13 04:59N 45°39' W 122°45'0 0.0
2017-Aug-13 04:30N 45°39' W 122°45'0 0.0
2017-Aug-13 04:01N 45°39' W 122°45'0 0.0
2017-Aug-13 03:31N 45°39' W 122°45'1 1.9
2017-Aug-13 03:00N 45°39' W 122°46'4 8.1
2017-Aug-13 02:31N 45°43' W 122°46'611.2
2017-Aug-13 02:01N 45°49' W 122°48'510.1
2017-Aug-13 01:31N 45°54' W 122°48'510.6
2017-Aug-13 01:01N 45°59' W 122°51'510.6
2017-Aug-13 00:30N 46°04' W 122°53'3 5.9
2017-Aug-13 00:00N 46°06' W 122°56'1 2.0
2017-Aug-12 23:31N 46°05' W 122°55'1 2.3
2017-Aug-12 23:01N 46°06' W 122°57'1 2.0
2017-Aug-12 22:30N 46°07' W 122°58'0 0.1
2017-Aug-12 22:00N 46°07' W 122°58'0 0.5
2017-Aug-12 21:30N 46°07' W 122°58'5 9.3
2017-Aug-12 21:01N 46°09' W 123°03'5 9.7
2017-Aug-12 20:30N 46°11' W 123°10'1 1.7
2017-Aug-12 20:00N 46°11' W 123°11'0 0.1
2017-Aug-12 19:30N 46°11' W 123°11'1 2.1
2017-Aug-12 19:00N 46°11' W 123°12'4 6.8
2017-Aug-12 18:21N 46°09' W 123°18'4 7.1
2017-Aug-12 17:48N 46°09' W 123°24'2 6.4
2017-Aug-12 17:30N 46°11' W 123°26'4 7.1
2017-Aug-12 17:00N 46°14' W 123°26'3 6.9
2017-Aug-12 16:31N 46°16' W 123°30'4 7.4
2017-Aug-12 16:01N 46°15' W 123°35'3 7.0
2017-Aug-12 15:31N 46°15' W 123°40'4 7.4
2017-Aug-12 15:00N 46°13' W 123°45'4 7.0
2017-Aug-12 14:30N 46°12' W 123°49'2 3.0
2017-Aug-12 14:00N 46°11' W 123°52'0 0.0
2017-Aug-12 13:30N 46°11' W 123°52'0 0.2
2017-Aug-12 13:00N 46°11' W 123°52'0 0.2
2017-Aug-12 12:30N 46°12' W 123°52'0 0.6
2017-Aug-12 12:01N 46°11' W 123°52'0 0.0
2017-Aug-12 11:31N 46°11' W 123°52'0 0.5
2017-Aug-12 11:01N 46°12' W 123°51'4 7.6
2017-Aug-12 10:30N 46°13' W 123°46'4 7.8
2017-Aug-12 10:00N 46°15' W 123°41'4 8.1
2017-Aug-12 09:31N 46°15' W 123°36'4 8.8
2017-Aug-12 09:00N 46°16' W 123°29'5 9.1
2017-Aug-12 08:31N 46°13' W 123°26'5 9.6
2017-Aug-12 08:00N 46°09' W 123°21'1010.9
2017-Aug-12 07:06N 46°11' W 123°08'110.9
2017-Aug-12 07:00N 46°11' W 123°06'611.1
2017-Aug-12 06:30N 46°08' W 122°60'3 6.9
2017-Aug-12 06:01N 46°05' W 122°56'510.8
2017-Aug-12 05:30N 46°01' W 122°52'1 1.6
2017-Aug-12 04:51N 46°02' W 122°53'1 2.2
2017-Aug-12 04:30N 46°01' W 122°52'2 4.5
2017-Aug-12 04:00N 45°59' W 122°51'0 0.7
2017-Aug-12 03:30N 45°59' W 122°50'0 0.6
2017-Aug-12 03:00N 45°59' W 122°50'0 0.8
2017-Aug-12 02:30N 45°59' W 122°50'5 9.9
2017-Aug-12 02:00N 45°54' W 122°48'610.2
2017-Aug-12 01:22N 45°48' W 122°47'411.3
2017-Aug-12 01:00N 45°44' W 122°46'510.1
2017-Aug-12 00:30N 45°39' W 122°45'1 3.0
2017-Aug-12 00:01N 45°38' W 122°43'0 0.3
2017-Aug-11 23:30N 45°38' W 122°43'1 1.7
2017-Aug-11 23:00N 45°38' W 122°44'0 0.8
2017-Aug-11 22:31N 45°38' W 122°45'1 2.1
2017-Aug-11 22:00N 45°38' W 122°43'0 0.1
2017-Aug-11 21:16N 45°38' W 122°43'2 6.1
2017-Aug-11 21:00N 45°39' W 122°45'0 0.0
2017-Aug-11 20:31N 45°39' W 122°45'0 0.0
2017-Aug-11 20:01N 45°39' W 122°45'0 0.0
2017-Aug-11 19:30N 45°39' W 122°45'1 2.4
2017-Aug-11 19:01N 45°40' W 122°46'5 9.6
2017-Aug-11 18:30N 45°44' W 122°46'510.0
2017-Aug-11 18:00N 45°49' W 122°48'4 9.0
2017-Aug-11 17:30N 45°54' W 122°48'5 9.1
2017-Aug-11 17:01N 45°58' W 122°50'1 2.7
2017-Aug-11 16:31N 45°59' W 122°51'1 1.1
2017-Aug-11 16:00N 45°60' W 122°51'5 9.0
2017-Aug-11 15:30N 46°04' W 122°53'3 6.0
2017-Aug-11 15:00N 46°06' W 122°57'1 0.9
2017-Aug-11 14:00N 46°06' W 122°58'  
Track history (hours):
 
Tides and Currents Weather Stations Pressure Air Temp Water Temp Dewpoint Dewpoint Depression Visibility Wind Speed Wind Dir Waves Ship Positions

Sommer S

Owner: Shaver Transportation Company, Portland, OR. More information available from US FCC via Universal Licensing System and Coast Guard Vessel Documentation Center.

Last reported at 2017-Aug-21 14:00 UTC. Time now 2017-Aug-21 14:07 UTC.
Position N 45°38' W 122°42'.

Length 25 m; draft 16.5 m.

Type: Tug. MMSI: 367530080.

Date/timePositionNaut miles runAvg speedWind from/ knotsBaromVisibWave heightAir tempDewpointWater temp
2017-Aug-21 14:00N 45°38' W 122°42'1 2.4
2017-Aug-21 13:30N 45°38' W 122°43'1 1.9
2017-Aug-21 13:01N 45°39' W 122°44'2 4.2
2017-Aug-21 12:30N 45°38' W 122°42'2 3.9
2017-Aug-21 11:52N 45°39' W 122°45'2 5.8
2017-Aug-21 11:30N 45°40' W 122°46'611.1
2017-Aug-21 11:00N 45°46' W 122°46'611.9
2017-Aug-21 10:31N 45°52' W 122°47'612.2
2017-Aug-21 10:00N 45°58' W 122°49'612.1
2017-Aug-21 09:30N 46°03' W 122°53'4 7.3
2017-Aug-21 09:01N 46°06' W 122°56'0 0.5
2017-Aug-21 08:31N 46°06' W 122°56'3 6.6
2017-Aug-21 08:00N 46°03' W 122°53'2 3.1
2017-Aug-21 07:30N 46°02' W 122°52'0 0.0
2017-Aug-21 07:01N 46°02' W 122°52'0 0.0
2017-Aug-21 06:30N 46°02' W 122°52'0 0.0
2017-Aug-21 06:01N 46°02' W 122°52'0 0.0
2017-Aug-21 05:30N 46°02' W 122°52'0 0.0
2017-Aug-21 05:01N 46°02' W 122°52'0 0.0
2017-Aug-21 04:30N 46°02' W 122°52'0 0.3
2017-Aug-21 04:01N 46°02' W 122°52'1 2.7
2017-Aug-21 03:31N 46°03' W 122°53'4 7.5
2017-Aug-21 02:59N 46°06' W 122°57'2 4.4
2017-Aug-21 02:27N 46°07' W 122°59'4 9.5
2017-Aug-21 02:00N 46°10' W 123°04'5 9.6
2017-Aug-21 01:31N 46°11' W 123°11'0 0.3
2017-Aug-21 01:00N 46°11' W 123°11'0 0.0
2017-Aug-21 00:30N 46°11' W 123°11'2 3.2
2017-Aug-21 00:00N 46°11' W 123°09'612.3
2017-Aug-20 23:30N 46°08' W 123°01'3 5.8
2017-Aug-20 23:00N 46°06' W 122°58'0 0.0
2017-Aug-20 22:30N 46°06' W 122°58'3 5.9
2017-Aug-20 22:01N 46°05' W 122°54'3 6.5
2017-Aug-20 21:30N 46°02' W 122°52'1 1.9
2017-Aug-20 21:01N 46°03' W 122°53'1 1.6
2017-Aug-20 20:30N 46°03' W 122°53'2 3.6
2017-Aug-20 20:01N 46°02' W 122°52'0 0.0
2017-Aug-20 19:30N 46°02' W 122°52'3 6.7
2017-Aug-20 19:00N 46°05' W 122°54'1 3.0
2017-Aug-20 18:30N 46°05' W 122°56'0 0.0
2017-Aug-20 18:01N 46°05' W 122°56'0 0.0
2017-Aug-20 17:30N 46°05' W 122°56'0 0.0
2017-Aug-20 17:00N 46°05' W 122°56'0 0.0
2017-Aug-20 16:30N 46°05' W 122°56'0 0.0
2017-Aug-20 16:01N 46°05' W 122°56'0 0.0
2017-Aug-20 15:30N 46°05' W 122°56'0 0.0
2017-Aug-20 15:00N 46°05' W 122°56'0 0.0
2017-Aug-20 14:31N 46°05' W 122°56'0 0.0
2017-Aug-20 14:00N 46°05' W 122°56'0 0.0
2017-Aug-20 13:31N 46°05' W 122°56'0 0.8
2017-Aug-20 13:01N 46°05' W 122°55'0 0.0
2017-Aug-20 12:31N 46°05' W 122°55'0 0.0
2017-Aug-20 12:00N 46°05' W 122°55'0 0.0
2017-Aug-20 11:30N 46°05' W 122°55'0 0.0
2017-Aug-20 11:00N 46°05' W 122°55'0 0.0
2017-Aug-20 10:30N 46°05' W 122°55'0 0.8
2017-Aug-20 10:00N 46°05' W 122°56'1 1.9
2017-Aug-20 09:31N 46°06' W 122°57'0 0.0
2017-Aug-20 09:01N 46°06' W 122°57'1 1.5
2017-Aug-20 08:31N 46°06' W 122°56'1 1.9
2017-Aug-20 08:01N 46°06' W 122°57'0 0.1
2017-Aug-20 07:31N 46°06' W 122°57'0 0.2
2017-Aug-20 07:01N 46°06' W 122°57'0 1.0
2017-Aug-20 06:31N 46°06' W 122°57'1 1.7
2017-Aug-20 06:01N 46°06' W 122°55'0 0.7
2017-Aug-20 05:31N 46°05' W 122°56'4 7.2
2017-Aug-20 05:00N 46°03' W 122°53'1 2.2
2017-Aug-20 04:31N 46°02' W 122°52'1 1.4
2017-Aug-20 04:01N 46°02' W 122°53'0 1.0
2017-Aug-20 03:30N 46°03' W 122°53'0 0.0
2017-Aug-20 03:01N 46°03' W 122°53'0 0.0
2017-Aug-20 02:30N 46°03' W 122°53'1 1.9
2017-Aug-20 02:00N 46°02' W 122°52'0 0.2
2017-Aug-20 01:30N 46°02' W 122°53'0 0.1
2017-Aug-20 01:01N 46°02' W 122°53'0 0.1
2017-Aug-20 00:30N 46°02' W 122°53'0 0.0
2017-Aug-20 00:00N 46°02' W 122°53'0 0.1
2017-Aug-19 23:30N 46°02' W 122°53'0 0.0
2017-Aug-19 23:00N 46°02' W 122°53'0 0.1
2017-Aug-19 22:30N 46°02' W 122°53'0 0.0
2017-Aug-19 22:00N 46°02' W 122°53'0 0.0
2017-Aug-19 21:30N 46°02' W 122°53'0 0.1
2017-Aug-19 21:00N 46°02' W 122°53'0 0.0
2017-Aug-19 20:30N 46°02' W 122°53'0 0.0
2017-Aug-19 20:01N 46°02' W 122°53'0 0.1
2017-Aug-19 19:31N 46°02' W 122°53'0 0.0
2017-Aug-19 19:00N 46°02' W 122°53'0 0.0
2017-Aug-19 18:31N 46°02' W 122°53'0 0.1
2017-Aug-19 18:00N 46°02' W 122°53'0 0.0
2017-Aug-19 17:30N 46°02' W 122°53'0 0.1
2017-Aug-19 17:00N 46°02' W 122°53'0 0.0
2017-Aug-19 16:30N 46°02' W 122°53'0 0.0
2017-Aug-19 16:01N 46°02' W 122°53'0 0.0
2017-Aug-19 15:30N 46°02' W 122°53'0 0.0
2017-Aug-19 15:00N 46°02' W 122°53'0 0.0
2017-Aug-19 14:00N 46°02' W 122°53'3 5.8
2017-Aug-19 13:30N 45°59' W 122°50'0 0.4
2017-Aug-19 13:00N 45°59' W 122°50'1 1.3
2017-Aug-19 12:31N 45°60' W 122°51'1 1.4
2017-Aug-19 12:01N 46°00' W 122°51'1 1.2
2017-Aug-19 11:31N 46°01' W 122°51'1 2.4
2017-Aug-19 11:00N 46°02' W 122°53'0 0.1
2017-Aug-19 10:30N 46°02' W 122°53'0 0.2
2017-Aug-19 10:00N 46°02' W 122°53'0 0.4
2017-Aug-19 09:31N 46°02' W 122°52'0 0.3
2017-Aug-19 09:00N 46°02' W 122°52'0 0.0
2017-Aug-19 08:30N 46°02' W 122°52'0 0.0
2017-Aug-19 08:01N 46°02' W 122°52'0 0.0
2017-Aug-19 07:31N 46°02' W 122°52'0 0.0
2017-Aug-19 07:01N 46°02' W 122°52'0 0.0
2017-Aug-19 06:30N 46°02' W 122°52'0 0.0
2017-Aug-19 06:00N 46°02' W 122°52'2 4.6
2017-Aug-19 05:30N 46°04' W 122°53'4 8.2
2017-Aug-19 04:59N 46°07' W 122°58'710.6
2017-Aug-19 04:20N 46°11' W 123°06'3 5.6
2017-Aug-19 03:44N 46°11' W 123°11'0 0.0
2017-Aug-19 03:30N 46°11' W 123°11'1 2.5
2017-Aug-19 03:00N 46°10' W 123°13'1 2.3
2017-Aug-19 02:30N 46°11' W 123°11'5 9.4
2017-Aug-19 02:00N 46°10' W 123°05'713.1
2017-Aug-19 01:31N 46°06' W 122°57'1 2.4
2017-Aug-19 01:00N 46°05' W 122°55'1 2.3
2017-Aug-19 00:30N 46°05' W 122°54'5 9.4
2017-Aug-19 00:00N 46°00' W 122°51'5 9.1
2017-Aug-18 23:31N 45°56' W 122°48'4 7.3
2017-Aug-18 23:01N 45°53' W 122°48'4 7.8
2017-Aug-18 22:30N 45°49' W 122°48'2 4.9
2017-Aug-18 22:00N 45°47' W 122°46'3 6.5
2017-Aug-18 21:30N 45°50' W 122°48'10 9.2
2017-Aug-18 20:26N 45°59' W 122°51'4 9.4
2017-Aug-18 20:00N 46°03' W 122°53'4 7.9
2017-Aug-18 19:30N 46°06' W 122°56'4 7.1
2017-Aug-18 19:00N 46°03' W 122°53'2 2.9
2017-Aug-18 18:25N 46°02' W 122°53'0 0.0
2017-Aug-18 18:00N 46°02' W 122°53'0 0.1
2017-Aug-18 17:30N 46°02' W 122°53'0 0.1
2017-Aug-18 17:01N 46°02' W 122°53'0 0.0
2017-Aug-18 16:19N 46°02' W 122°53'0 1.3
2017-Aug-18 16:00N 46°02' W 122°53'4 7.8
2017-Aug-18 15:30N 46°05' W 122°56'2 3.7
2017-Aug-18 15:00N 46°07' W 122°58'0 0.7
2017-Aug-18 14:30N 46°07' W 122°58'1 0.9
2017-Aug-18 13:30N 46°06' W 122°57'611.0
2017-Aug-18 13:00N 46°02' W 122°53'3 6.4
2017-Aug-18 12:30N 45°59' W 122°50'0 0.1
2017-Aug-18 12:00N 45°59' W 122°50'0 0.2
2017-Aug-18 11:30N 45°59' W 122°50'0 0.0
2017-Aug-18 11:00N 45°59' W 122°50'0 0.0
2017-Aug-18 10:30N 45°59' W 122°50'0 0.0
2017-Aug-18 10:00N 45°59' W 122°50'0 0.1
2017-Aug-18 09:30N 45°59' W 122°50'0 0.1
2017-Aug-18 09:01N 45°59' W 122°50'0 0.0
2017-Aug-18 08:30N 45°59' W 122°50'0 0.0
2017-Aug-18 08:00N 45°59' W 122°50'0 0.0
2017-Aug-18 07:30N 45°59' W 122°50'0 0.0
2017-Aug-18 07:01N 45°59' W 122°50'0 0.0
2017-Aug-18 06:30N 45°59' W 122°50'0 0.0
2017-Aug-18 06:01N 45°59' W 122°50'0 0.0
2017-Aug-18 05:31N 45°59' W 122°50'0 0.3
2017-Aug-18 05:00N 45°59' W 122°50'0 0.1
2017-Aug-18 04:30N 45°59' W 122°50'0 0.1
2017-Aug-18 03:57N 45°59' W 122°50'0 0.0
2017-Aug-18 03:31N 45°59' W 122°50'2 3.8
2017-Aug-18 03:00N 46°01' W 122°52'4 8.8
2017-Aug-18 02:31N 46°05' W 122°54'3 6.3
2017-Aug-18 02:01N 46°07' W 122°58'1 2.1
2017-Aug-18 01:30N 46°07' W 122°59'1 1.4
2017-Aug-18 01:00N 46°07' W 122°58'2 3.3
2017-Aug-18 00:30N 46°06' W 122°56'0 0.4
2017-Aug-18 00:01N 46°06' W 122°57'0 0.2
2017-Aug-17 23:31N 46°06' W 122°56'0 0.0
2017-Aug-17 23:01N 46°06' W 122°56'0 0.0
2017-Aug-17 22:30N 46°06' W 122°56'0 0.0
2017-Aug-17 22:00N 46°06' W 122°56'0 0.0
2017-Aug-17 21:31N 46°06' W 122°56'0 0.0
2017-Aug-17 21:00N 46°06' W 122°56'5 9.0
2017-Aug-17 20:30N 46°02' W 122°53'510.9
2017-Aug-17 20:00N 45°58' W 122°49'510.7
2017-Aug-17 19:31N 45°52' W 122°47'611.2
2017-Aug-17 19:00N 45°47' W 122°46'510.1
2017-Aug-17 18:30N 45°42' W 122°46'4 9.0
2017-Aug-17 18:01N 45°37' W 122°47'4 8.1
2017-Aug-17 17:30N 45°34' W 122°43'1 1.4
2017-Aug-17 17:00N 45°34' W 122°43'1 1.6
2017-Aug-17 16:30N 45°34' W 122°44'0 0.7
2017-Aug-17 16:00N 45°34' W 122°44'0 0.0
2017-Aug-17 15:30N 45°34' W 122°44'1 1.7
2017-Aug-17 15:00N 45°34' W 122°44'4 7.3
2017-Aug-17 14:31N 45°37' W 122°47'2 4.7
2017-Aug-17 14:00N 45°39' W 122°45'2 3.3
2017-Aug-17 13:30N 45°38' W 122°42'0 0.1
2017-Aug-17 13:00N 45°38' W 122°42'0 0.8
2017-Aug-17 12:31N 45°38' W 122°43'0 0.8
2017-Aug-17 12:00N 45°38' W 122°42'3 6.1
2017-Aug-17 11:30N 45°38' W 122°47'3 5.4
2017-Aug-17 11:00N 45°36' W 122°47'0 0.2
2017-Aug-17 10:30N 45°36' W 122°47'0 0.7
2017-Aug-17 10:00N 45°36' W 122°47'0 0.2
2017-Aug-17 09:30N 45°36' W 122°47'0 0.2
2017-Aug-17 09:01N 45°36' W 122°47'1 2.0
2017-Aug-17 08:30N 45°37' W 122°47'3 5.5
2017-Aug-17 08:00N 45°39' W 122°44'1 1.1
2017-Aug-17 07:30N 45°38' W 122°43'1 1.5
2017-Aug-17 06:40N 45°38' W 122°42'0 0.8
2017-Aug-17 06:30N 45°38' W 122°42'0 0.0
2017-Aug-17 06:00N 45°38' W 122°42'1 1.6
2017-Aug-17 05:31N 45°38' W 122°43'2 3.7
2017-Aug-17 05:00N 45°39' W 122°45'0 0.0
2017-Aug-17 04:30N 45°39' W 122°45'0 0.0
2017-Aug-17 04:00N 45°39' W 122°45'0 0.9
2017-Aug-17 03:30N 45°39' W 122°45'1 1.2
2017-Aug-17 03:00N 45°39' W 122°45'0 0.1
2017-Aug-17 02:31N 45°39' W 122°45'0 0.0
2017-Aug-17 02:00N 45°39' W 122°45'0 0.0
2017-Aug-17 01:30N 45°39' W 122°45'0 0.0
2017-Aug-17 01:01N 45°39' W 122°45'0 0.0
2017-Aug-17 00:31N 45°39' W 122°45'0 0.0
2017-Aug-17 00:00N 45°39' W 122°45'0 0.0
2017-Aug-16 23:30N 45°39' W 122°45'0 0.0
2017-Aug-16 23:00N 45°39' W 122°45'0 0.0
2017-Aug-16 22:31N 45°39' W 122°45'0 0.0
2017-Aug-16 22:00N 45°39' W 122°45'0 0.0
2017-Aug-16 21:31N 45°39' W 122°45'0 0.0
2017-Aug-16 21:01N 45°39' W 122°45'0 0.0
2017-Aug-16 20:16N 45°39' W 122°45'0 0.0
2017-Aug-16 20:00N 45°39' W 122°45'0 0.0
2017-Aug-16 19:31N 45°39' W 122°45'0 0.0
2017-Aug-16 19:01N 45°39' W 122°45'3 6.1
2017-Aug-16 18:30N 45°36' W 122°47'4 7.2
2017-Aug-16 18:00N 45°34' W 122°44'0 0.0
2017-Aug-16 17:30N 45°34' W 122°44'0 0.0
2017-Aug-16 17:00N 45°34' W 122°44'0 0.0
2017-Aug-16 16:30N 45°34' W 122°44'0 0.0
2017-Aug-16 16:00N 45°34' W 122°44'2 4.2
2017-Aug-16 15:30N 45°35' W 122°46'4 7.7
2017-Aug-16 15:00N 45°39' W 122°46'3 6.8
2017-Aug-16 14:30N 45°38' W 122°42'1 1.1
2017-Aug-16 14:00N 45°38' W 122°42'1 2.0
2017-Aug-16 13:30N 45°38' W 122°44'0 0.0
2017-Aug-16 13:01N 45°38' W 122°44'0 0.0
2017-Aug-16 12:30N 45°38' W 122°44'0 0.0
2017-Aug-16 12:01N 45°38' W 122°44'0 0.0
2017-Aug-16 11:30N 45°38' W 122°44'0 0.0
2017-Aug-16 11:00N 45°38' W 122°44'1 0.8
2017-Aug-16 10:10N 45°39' W 122°45'1 7.1
2017-Aug-16 10:00N 45°39' W 122°46'1 2.1
2017-Aug-16 09:30N 45°38' W 122°47'0 0.2
2017-Aug-16 09:00N 45°38' W 122°47'0 0.0
2017-Aug-16 08:30N 45°38' W 122°47'2 4.9
2017-Aug-16 08:00N 45°38' W 122°43'3 5.2
2017-Aug-16 07:30N 45°40' W 122°46'0 0.2
2017-Aug-16 07:00N 45°40' W 122°46'1 2.9
2017-Aug-16 06:31N 45°41' W 122°46'2 4.3
2017-Aug-16 06:01N 45°39' W 122°45'0 0.0
2017-Aug-16 05:30N 45°39' W 122°45'0 0.0
2017-Aug-16 05:00N 45°39' W 122°45'0 0.0
2017-Aug-16 04:30N 45°39' W 122°45'1 2.6
2017-Aug-16 04:01N 45°38' W 122°44'0 0.4
2017-Aug-16 03:30N 45°38' W 122°44'0 0.0
2017-Aug-16 03:00N 45°38' W 122°44'2 3.4
2017-Aug-16 02:30N 45°38' W 122°42'2 3.3
2017-Aug-16 02:01N 45°38' W 122°44'0 0.0
2017-Aug-16 01:29N 45°38' W 122°44'0 0.0
2017-Aug-16 01:01N 45°38' W 122°44'0 0.0
2017-Aug-16 00:31N 45°38' W 122°44'0 0.0
2017-Aug-16 00:00N 45°38' W 122°44'0 0.0
2017-Aug-15 23:31N 45°38' W 122°44'1 2.1
2017-Aug-15 23:00N 45°38' W 122°42'0 0.2
2017-Aug-15 22:30N 45°38' W 122°42'1 1.9
2017-Aug-15 22:00N 45°38' W 122°43'4 8.6
2017-Aug-15 21:30N 45°42' W 122°46'5 9.3
2017-Aug-15 21:00N 45°47' W 122°46'5 9.2
2017-Aug-15 20:30N 45°51' W 122°47'5 9.1
2017-Aug-15 20:01N 45°56' W 122°48'5 9.6
2017-Aug-15 19:31N 46°00' W 122°51'5 9.4
2017-Aug-15 19:00N 46°05' W 122°54'5 9.6
2017-Aug-15 18:30N 46°07' W 122°60'510.3
2017-Aug-15 18:00N 46°10' W 123°06'5 9.5
2017-Aug-15 17:31N 46°10' W 123°12'510.4
2017-Aug-15 17:00N 46°08' W 123°19'510.1
2017-Aug-15 16:30N 46°11' W 123°26'510.2
2017-Aug-15 16:00N 46°16' W 123°28'610.9
2017-Aug-15 15:30N 46°15' W 123°36'510.8
2017-Aug-15 15:00N 46°14' W 123°43'611.1
2017-Aug-15 14:30N 46°12' W 123°50'1 2.1
2017-Aug-15 14:00N 46°11' W 123°52'1 1.5
2017-Aug-15 13:30N 46°12' W 123°51'5 9.7
2017-Aug-15 13:00N 46°14' W 123°44'5 9.4
2017-Aug-15 12:30N 46°16' W 123°38'611.9
2017-Aug-15 12:00N 46°16' W 123°29'611.4
2017-Aug-15 11:30N 46°11' W 123°26'611.7
2017-Aug-15 11:00N 46°09' W 123°18'713.4
2017-Aug-15 10:30N 46°11' W 123°09'713.2
2017-Aug-15 10:00N 46°08' W 123°01'612.3
2017-Aug-15 09:30N 46°05' W 122°54'612.6
2017-Aug-15 09:00N 45°59' W 122°50'912.4
2017-Aug-15 08:18N 45°50' W 122°47'412.8
2017-Aug-15 08:00N 45°47' W 122°46'612.7
2017-Aug-15 07:30N 45°40' W 122°46'3 5.1
2017-Aug-15 07:00N 45°38' W 122°44'1 1.4
2017-Aug-15 06:30N 45°39' W 122°45'0 0.0
2017-Aug-15 06:00N 45°39' W 122°45'2 4.2
2017-Aug-15 05:30N 45°38' W 122°47'2 3.2
2017-Aug-15 04:59N 45°36' W 122°47'0 0.3
2017-Aug-15 04:30N 45°36' W 122°47'2 3.8
2017-Aug-15 04:00N 45°38' W 122°47'2 3.7
2017-Aug-15 03:30N 45°39' W 122°45'0 0.0
2017-Aug-15 03:00N 45°39' W 122°45'0 0.0
2017-Aug-15 02:30N 45°39' W 122°45'0 0.0
2017-Aug-15 01:55N 45°39' W 122°45'0 0.0
2017-Aug-15 01:18N 45°39' W 122°45'0 0.0
2017-Aug-15 01:00N 45°39' W 122°45'0 0.0
2017-Aug-15 00:30N 45°39' W 122°45'0 0.1
2017-Aug-15 00:00N 45°39' W 122°45'2 3.5
2017-Aug-14 23:30N 45°38' W 122°47'4 8.3
2017-Aug-14 23:00N 45°34' W 122°44'4 7.7
2017-Aug-14 22:30N 45°32' W 122°40'3 6.0
2017-Aug-14 22:00N 45°34' W 122°44'0 0.0
2017-Aug-14 21:30N 45°34' W 122°44'0 0.0
2017-Aug-14 21:00N 45°34' W 122°44'0 0.0
2017-Aug-14 20:19N 45°34' W 122°44'0 0.0
2017-Aug-14 20:00N 45°34' W 122°44'0 0.0
2017-Aug-14 19:30N 45°34' W 122°44'0 0.0
2017-Aug-14 19:00N 45°34' W 122°44'0 0.0
2017-Aug-14 18:30N 45°34' W 122°44'0 0.0
2017-Aug-14 18:00N 45°34' W 122°44'0 0.0
2017-Aug-14 17:30N 45°34' W 122°44'0 0.0
2017-Aug-14 17:00N 45°34' W 122°44'0 0.0
2017-Aug-14 16:30N 45°34' W 122°44'0 0.0
2017-Aug-14 16:00N 45°34' W 122°44'0 0.0
2017-Aug-14 15:30N 45°34' W 122°44'0 0.0
2017-Aug-14 15:00N 45°34' W 122°44'2 3.5
2017-Aug-14 14:30N 45°33' W 122°42'1 1.4
2017-Aug-14 14:00N 45°32' W 122°41'0 0.1
2017-Aug-14 13:30N 45°32' W 122°41'2 3.7
2017-Aug-14 13:00N 45°33' W 122°43'1 1.3
2017-Aug-14 12:30N 45°34' W 122°44'0 0.0
2017-Aug-14 12:00N 45°34' W 122°44'0 0.0
2017-Aug-14 11:30N 45°34' W 122°44'0 0.0
2017-Aug-14 11:00N 45°34' W 122°44'0 0.0
2017-Aug-14 10:30N 45°34' W 122°44'0 0.0
2017-Aug-14 10:00N 45°34' W 122°44'0 0.0
2017-Aug-14 09:30N 45°34' W 122°44'3 5.9
2017-Aug-14 09:00N 45°36' W 122°47'0 0.2
2017-Aug-14 08:30N 45°36' W 122°47'0 0.4
2017-Aug-14 08:00N 45°36' W 122°47'1 1.6
2017-Aug-14 07:30N 45°35' W 122°46'4 8.7
2017-Aug-14 07:00N 45°32' W 122°41'0 0.3
2017-Aug-14 06:30N 45°33' W 122°41'2 4.0
2017-Aug-14 06:00N 45°34' W 122°44'1 2.2
2017-Aug-14 05:28N 45°33' W 122°42'1 3.2
2017-Aug-14 05:00N 45°32' W 122°41'0 0.5
2017-Aug-14 04:30N 45°32' W 122°40'0 0.3
2017-Aug-14 04:00N 45°32' W 122°40'0 0.2
2017-Aug-14 03:30N 45°32' W 122°40'3 6.1
2017-Aug-14 02:59N 45°34' W 122°43'5 8.8
2017-Aug-14 02:26N 45°38' W 122°47'4 9.2
2017-Aug-14 02:00N 45°42' W 122°46'510.8
2017-Aug-14 01:30N 45°47' W 122°46'510.4
2017-Aug-14 01:00N 45°52' W 122°47'510.4
2017-Aug-14 00:30N 45°57' W 122°49'510.1
2017-Aug-14 00:00N 46°02' W 122°52'5 9.4
2017-Aug-13 23:30N 46°06' W 122°56'5 9.6
2017-Aug-13 22:59N 46°09' W 123°02'510.0
2017-Aug-13 22:30N 46°11' W 123°08'2 4.5
2017-Aug-13 22:00N 46°11' W 123°11'1 2.6
2017-Aug-13 21:30N 46°11' W 123°09'713.2
2017-Aug-13 21:00N 46°08' W 123°01'4 7.6
2017-Aug-13 20:30N 46°06' W 122°56'0 1.0
2017-Aug-13 20:00N 46°05' W 122°56'0 0.0
2017-Aug-13 19:30N 46°05' W 122°56'0 0.0
2017-Aug-13 19:00N 46°05' W 122°56'0 0.0
2017-Aug-13 18:30N 46°05' W 122°56'0 0.0
2017-Aug-13 18:00N 46°05' W 122°56'0 0.0
2017-Aug-13 17:30N 46°05' W 122°56'0 0.0
2017-Aug-13 17:00N 46°05' W 122°56'0 0.0
2017-Aug-13 16:30N 46°05' W 122°56'0 0.0
2017-Aug-13 16:00N 46°05' W 122°56'0 0.0
2017-Aug-13 15:30N 46°05' W 122°56'1 1.0
2017-Aug-13 15:00N 46°06' W 122°56'0 0.7
2017-Aug-13 14:30N 46°06' W 122°57'0 0.8
2017-Aug-13 14:00N 46°06' W 122°56'0 0.0
2017-Aug-13 13:30N 46°06' W 122°56'0 0.3
2017-Aug-13 13:00N 46°06' W 122°56'611.4
2017-Aug-13 12:30N 46°01' W 122°52'612.2
2017-Aug-13 12:00N 45°55' W 122°48'713.3
2017-Aug-13 11:30N 45°49' W 122°48'612.9
2017-Aug-13 11:00N 45°42' W 122°46'4 5.7
2017-Aug-13 10:19N 45°39' W 122°45'0 0.1
2017-Aug-13 10:01N 45°39' W 122°45'0 0.0
2017-Aug-13 09:31N 45°39' W 122°45'0 0.1
2017-Aug-13 09:00N 45°39' W 122°45'2 4.9
2017-Aug-13 08:30N 45°37' W 122°47'4 3.6
2017-Aug-13 07:21N 45°34' W 122°44'0 0.0
2017-Aug-13 07:00N 45°34' W 122°44'0 0.0
2017-Aug-13 06:30N 45°34' W 122°44'1 2.3
2017-Aug-13 06:01N 45°35' W 122°45'4 8.0
2017-Aug-13 05:30N 45°38' W 122°47'1 2.3
2017-Aug-13 04:59N 45°39' W 122°45'0 0.0
2017-Aug-13 04:30N 45°39' W 122°45'0 0.0
2017-Aug-13 04:01N 45°39' W 122°45'0 0.0
2017-Aug-13 03:31N 45°39' W 122°45'1 1.9
2017-Aug-13 03:00N 45°39' W 122°46'4 8.1
2017-Aug-13 02:31N 45°43' W 122°46'611.2
2017-Aug-13 02:01N 45°49' W 122°48'510.1
2017-Aug-13 01:31N 45°54' W 122°48'510.6
2017-Aug-13 01:01N 45°59' W 122°51'510.6
2017-Aug-13 00:30N 46°04' W 122°53'3 5.9
2017-Aug-13 00:00N 46°06' W 122°56'1 2.0
2017-Aug-12 23:31N 46°05' W 122°55'1 2.3
2017-Aug-12 23:01N 46°06' W 122°57'1 2.0
2017-Aug-12 22:30N 46°07' W 122°58'0 0.1
2017-Aug-12 22:00N 46°07' W 122°58'0 0.5
2017-Aug-12 21:30N 46°07' W 122°58'5 9.3
2017-Aug-12 21:01N 46°09' W 123°03'5 9.7
2017-Aug-12 20:30N 46°11' W 123°10'1 1.7
2017-Aug-12 20:00N 46°11' W 123°11'0 0.1
2017-Aug-12 19:30N 46°11' W 123°11'1 2.1
2017-Aug-12 19:00N 46°11' W 123°12'4 6.8
2017-Aug-12 18:21N 46°09' W 123°18'4 7.1
2017-Aug-12 17:48N 46°09' W 123°24'2 6.4
2017-Aug-12 17:30N 46°11' W 123°26'4 7.1
2017-Aug-12 17:00N 46°14' W 123°26'3 6.9
2017-Aug-12 16:31N 46°16' W 123°30'4 7.4
2017-Aug-12 16:01N 46°15' W 123°35'3 7.0
2017-Aug-12 15:31N 46°15' W 123°40'4 7.4
2017-Aug-12 15:00N 46°13' W 123°45'4 7.0
2017-Aug-12 14:30N 46°12' W 123°49'2 3.0
2017-Aug-12 14:00N 46°11' W 123°52'0 0.0
2017-Aug-12 13:30N 46°11' W 123°52'0 0.2
2017-Aug-12 13:00N 46°11' W 123°52'0 0.2
2017-Aug-12 12:30N 46°12' W 123°52'0 0.6
2017-Aug-12 12:01N 46°11' W 123°52'0 0.0
2017-Aug-12 11:31N 46°11' W 123°52'0 0.5
2017-Aug-12 11:01N 46°12' W 123°51'4 7.6
2017-Aug-12 10:30N 46°13' W 123°46'4 7.8
2017-Aug-12 10:00N 46°15' W 123°41'4 8.1
2017-Aug-12 09:31N 46°15' W 123°36'4 8.8
2017-Aug-12 09:00N 46°16' W 123°29'5 9.1
2017-Aug-12 08:31N 46°13' W 123°26'5 9.6
2017-Aug-12 08:00N 46°09' W 123°21'1010.9
2017-Aug-12 07:06N 46°11' W 123°08'110.9
2017-Aug-12 07:00N 46°11' W 123°06'611.1
2017-Aug-12 06:30N 46°08' W 122°60'3 6.9
2017-Aug-12 06:01N 46°05' W 122°56'510.8
2017-Aug-12 05:30N 46°01' W 122°52'1 1.6
2017-Aug-12 04:51N 46°02' W 122°53'1 2.2
2017-Aug-12 04:30N 46°01' W 122°52'2 4.5
2017-Aug-12 04:00N 45°59' W 122°51'0 0.7
2017-Aug-12 03:30N 45°59' W 122°50'0 0.6
2017-Aug-12 03:00N 45°59' W 122°50'0 0.8
2017-Aug-12 02:30N 45°59' W 122°50'5 9.9
2017-Aug-12 02:00N 45°54' W 122°48'610.2
2017-Aug-12 01:22N 45°48' W 122°47'411.3
2017-Aug-12 01:00N 45°44' W 122°46'510.1
2017-Aug-12 00:30N 45°39' W 122°45'1 3.0
2017-Aug-12 00:01N 45°38' W 122°43'0 0.3
2017-Aug-11 23:30N 45°38' W 122°43'1 1.7
2017-Aug-11 23:00N 45°38' W 122°44'0 0.8
2017-Aug-11 22:31N 45°38' W 122°45'1 2.1
2017-Aug-11 22:00N 45°38' W 122°43'0 0.1
2017-Aug-11 21:16N 45°38' W 122°43'2 6.1
2017-Aug-11 21:00N 45°39' W 122°45'0 0.0
2017-Aug-11 20:31N 45°39' W 122°45'0 0.0
2017-Aug-11 20:01N 45°39' W 122°45'0 0.0
2017-Aug-11 19:30N 45°39' W 122°45'1 2.4
2017-Aug-11 19:01N 45°40' W 122°46'5 9.6
2017-Aug-11 18:30N 45°44' W 122°46'510.0
2017-Aug-11 18:00N 45°49' W 122°48'4 9.0
2017-Aug-11 17:30N 45°54' W 122°48'5 9.1
2017-Aug-11 17:01N 45°58' W 122°50'1 2.7
2017-Aug-11 16:31N 45°59' W 122°51'1 1.1
2017-Aug-11 16:00N 45°60' W 122°51'5 9.0
2017-Aug-11 15:30N 46°04' W 122°53'3 6.0
2017-Aug-11 15:00N 46°06' W 122°57'1 0.9
2017-Aug-11 14:00N 46°06' W 122°58'  

Dump ship's entire track history